Time;durP1;ratioP1;P1;durP2;ratioP2;P2;SDS_P1;SDS_P2;PMS_P1;PMS_P2;Temp;Humidity;BMP_temperature;BMP_pressure;BME280_temperature;BME280_humidity;BME280_pressure;Samples;Min_cycle;Max_cycle;Signal;HPM_P1;HPM_P2
2023/01/02 00:01:16;;;;;;;0.10;0.10;;;;;;;-145.06;100.00;53849.84;10411197;28;20025;-77
2023/01/02 00:06:17;;;;;;;0.10;0.10;;;;;;;-145.06;100.00;53815.44;10411798;28;20031;-77
2023/01/02 00:11:17;;;;;;;0.10;0.10;;;;;;;-145.06;100.00;53797.22;10393272;28;20030;-77
2023/01/02 00:16:17;;;;;;;0.00;0.00;;;;;;;-145.06;100.00;53815.44;10407247;28;20025;-77
2023/01/02 00:21:18;;;;;;;0.10;0.10;;;;;;;-145.06;100.00;53847.84;10410280;28;20033;-77
2023/01/02 00:26:18;;;;;;;0.10;0.10;;;;;;;-145.06;100.00;53835.69;10410176;28;20025;-77
2023/01/02 00:31:18;;;;;;;0.10;0.10;;;;;;;-145.06;100.00;53811.38;10409837;28;20033;-77
2023/01/02 00:36:18;;;;;;;0.10;0.10;;;;;;;-145.06;100.00;53785.06;10410535;28;20029;-77
2023/01/02 00:41:20;;;;;;;0.10;0.10;;;;;;;-145.06;100.00;53819.47;10409387;28;20099;-76
2023/01/02 00:46:20;;;;;;;0.10;0.10;;;;;;;-145.06;100.00;53770.88;10410190;28;20017;-77
2023/01/02 00:51:21;;;;;;;0.00;0.00;;;;;;;-145.06;100.00;53801.25;10409048;28;20041;-77
2023/01/02 00:56:21;;;;;;;0.10;0.10;;;;;;;-145.06;100.00;53785.06;10409786;28;20472;-77
2023/01/02 01:01:21;;;;;;;0.10;0.10;;;;;;;-145.06;100.00;53827.59;10408984;28;20037;-77
2023/01/02 01:06:21;;;;;;;0.10;0.10;;;;;;;-145.06;100.00;53833.66;10409300;28;20022;-77
2023/01/02 01:11:22;;;;;;;0.10;0.10;;;;;;;-145.06;100.00;53823.53;10391445;28;20025;-77
2023/01/02 01:16:22;;;;;;;0.10;0.10;;;;;;;-145.06;100.00;53855.94;10409015;28;20571;-77
2023/01/02 01:21:23;;;;;;;0.10;0.10;;;;;;;-145.06;100.00;53776.94;10408459;28;20373;-77
2023/01/02 01:26:23;;;;;;;0.05;0.05;;;;;;;-145.06;100.00;53811.38;10408890;28;20408;-77
2023/01/02 01:31:24;;;;;;;0.00;0.00;;;;;;;-145.06;100.00;53831.63;10408506;28;20029;-77
2023/01/02 01:36:24;;;;;;;0.10;0.10;;;;;;;-145.06;100.00;53783.03;10413961;23;20489;-77
2023/01/02 01:41:25;;;;;;;0.10;0.10;;;;;;;-145.06;100.00;53819.47;10387079;28;20034;-77
2023/01/02 01:46:30;;;;;;;0.00;0.00;;;;;;;-145.06;100.00;53807.31;10378753;28;20028;-77
2023/01/02 01:51:35;;;;;;;0.10;0.10;;;;;;;-145.06;100.00;53805.31;10377902;28;20036;-77
2023/01/02 01:56:39;;;;;;;0.10;0.10;;;;;;;-145.06;100.00;53787.06;10377893;28;20384;-78
2023/01/02 02:01:40;;;;;;;0.10;0.10;;;;;;;-145.06;100.00;53778.97;10385683;28;20021;-77
2023/01/02 02:06:40;;;;;;;0.10;0.10;;;;;;;-145.06;100.00;53805.31;10390656;28;20045;-76
2023/01/02 02:11:42;;;;;;;0.10;0.10;;;;;;;-145.06;100.00;53815.44;10385338;28;20049;-77
2023/01/02 02:16:58;;;;;;;0.00;0.00;;;;;;;-145.06;100.00;53827.59;10385083;28;20072;-76
2023/01/02 02:22:32;;;;;;;0.10;0.10;;;;;;;-145.06;100.00;53797.22;10360787;28;20113;-76
2023/01/02 02:27:49;;;;;;;0.10;0.10;;;;;;;-145.06;100.00;53839.72;10363986;28;20495;-75
2023/01/02 02:33:03;;;;;;;0.10;0.10;;;;;;;-145.06;100.00;53825.56;10380399;28;20022;-76
2023/01/02 02:38:11;;;;;;;0.00;0.00;;;;;;;-145.06;100.00;53813.41;10380739;28;20026;-76
2023/01/02 02:43:24;;;;;;;0.10;0.10;;;;;;;-145.06;100.00;53827.59;10366659;28;20034;-76
2023/01/02 02:48:31;;;;;;;0.10;0.10;;;;;;;-145.06;100.00;53803.28;10376769;28;20065;-76
2023/01/02 02:53:39;;;;;;;0.10;0.10;;;;;;;-145.06;100.00;53815.44;10364650;28;20413;-76
2023/01/02 02:58:42;;;;;;;0.10;0.10;;;;;;;-145.06;100.00;53801.25;10350076;28;20456;-76
2023/01/02 03:03:42;;;;;;;0.00;0.00;;;;;;;-145.06;100.00;53821.50;10356346;28;20013;-77
2023/01/02 03:09:07;;;;;;;0.10;0.10;;;;;;;-145.06;100.00;53880.22;10358977;28;20033;-75
2023/01/02 03:14:19;;;;;;;0.00;0.00;;;;;;;-145.06;100.00;53819.47;10373561;28;20096;-76
2023/01/02 03:19:30;;;;;;;0.00;0.00;;;;;;;-145.06;100.00;53817.47;10370066;28;20109;-76
2023/01/02 03:24:32;;;;;;;0.00;0.00;;;;;;;-145.06;100.00;53819.47;10372767;28;20028;-76
2023/01/02 03:29:38;;;;;;;0.10;0.10;;;;;;;-145.06;100.00;53827.59;10374933;28;20109;-76
2023/01/02 03:34:42;;;;;;;0.00;0.00;;;;;;;-145.06;100.00;53847.84;10377488;28;20018;-76
2023/01/02 03:39:47;;;;;;;0.10;0.10;;;;;;;-145.06;100.00;53829.59;10374255;28;20116;-76
2023/01/02 03:44:57;;;;;;;0.10;0.10;;;;;;;-145.06;100.00;53819.47;10373481;28;20105;-76
2023/01/02 03:50:03;;;;;;;0.10;0.10;;;;;;;-145.06;100.00;53817.47;10378298;28;20026;-76
2023/01/02 03:55:04;;;;;;;0.10;0.10;;;;;;;-145.06;100.00;53847.84;10377135;28;20492;-76
2023/01/02 04:00:08;;;;;;;0.10;0.10;;;;;;;-145.06;100.00;53811.38;10376089;28;20018;-77
2023/01/02 04:05:14;;;;;;;0.00;0.00;;;;;;;-145.06;100.00;53789.09;10375186;28;20022;-77
2023/01/02 04:10:15;;;;;;;0.05;0.05;;;;;;;-145.06;100.00;53855.94;10377159;28;20049;-75
2023/01/02 04:15:17;;;;;;;0.10;0.10;;;;;;;-145.06;100.00;53801.25;10372316;28;20041;-77
2023/01/02 04:20:27;;;;;;;0.10;0.10;;;;;;;-145.06;100.00;53827.59;10356076;28;20026;-76
2023/01/02 04:25:41;;;;;;;0.00;0.00;;;;;;;-145.06;100.00;53819.47;10373062;28;20123;-77
2023/01/02 04:30:47;;;;;;;0.10;0.10;;;;;;;-145.06;100.00;53799.22;10375831;28;20028;-76
2023/01/02 04:35:48;;;;;;;0.10;0.10;;;;;;;-145.06;100.00;53817.47;10370458;28;20177;-77
2023/01/02 04:40:48;;;;;;;0.00;0.00;;;;;;;-145.06;100.00;53851.88;10376098;28;20393;-77
2023/01/02 04:45:49;;;;;;;0.10;0.10;;;;;;;-145.06;100.00;53809.34;10374127;28;20453;-77
2023/01/02 04:50:49;;;;;;;0.10;0.10;;;;;;;-145.06;100.00;53813.41;10364194;28;20113;-76
2023/01/02 04:55:58;;;;;;;0.10;0.10;;;;;;;-145.06;100.00;53791.13;10348927;28;20253;-76
2023/01/02 05:00:59;;;;;;;0.10;0.10;;;;;;;-145.06;100.00;53823.53;10377207;28;20014;-77
2023/01/02 05:06:00;;;;;;;0.10;0.10;;;;;;;-145.06;100.00;53815.44;10375396;28;20101;-77
2023/01/02 05:11:08;;;;;;;0.10;0.10;;;;;;;-145.06;100.00;53783.03;10375043;28;20021;-76
2023/01/02 05:16:09;;;;;;;0.10;0.10;;;;;;;-145.06;100.00;53791.13;10358657;28;20033;-76
2023/01/02 05:26:31;;;;;;;0.10;0.10;;;;;;;-145.06;100.00;53813.41;10373035;28;20025;-77
2023/01/02 05:31:32;;;;;;;0.10;0.10;;;;;;;-145.06;100.00;53835.69;10373484;28;20424;-76
2023/01/02 05:36:32;;;;;;;0.10;0.10;;;;;;;-145.06;100.00;53823.53;10372862;28;20021;-77
2023/01/02 05:41:32;;;;;;;0.00;0.00;;;;;;;-145.06;100.00;53843.78;10372058;28;20272;-76
2023/01/02 05:46:33;;;;;;;0.10;0.10;;;;;;;-145.06;100.00;53811.38;10369015;28;20401;-76
2023/01/02 05:51:34;;;;;;;0.03;0.03;;;;;;;-145.06;100.00;53817.47;10345626;28;20500;-77
2023/01/02 05:56:34;;;;;;;0.00;0.00;;;;;;;-145.06;100.00;53827.59;10354376;28;20021;-77
2023/01/02 06:01:35;;;;;;;0.00;0.00;;;;;;;-145.06;100.00;53825.56;10360487;28;20045;-77
2023/01/02 06:06:38;;;;;;;0.10;0.10;;;;;;;-145.06;100.00;53783.03;10357111;28;20258;-77
2023/01/02 06:11:39;;;;;;;0.10;0.10;;;;;;;-145.06;100.00;53855.94;10346630;28;20042;-76
2023/01/02 06:16:39;;;;;;;0.10;0.10;;;;;;;-145.06;100.00;53811.38;10350989;28;20037;-77
2023/01/02 06:21:39;;;;;;;0.00;0.00;;;;;;;-145.06;100.00;53807.31;10373255;28;20088;-77
2023/01/02 06:26:40;;;;;;;0.10;0.10;;;;;;;-145.06;100.00;53811.38;10371455;28;20531;-76
2023/01/02 06:31:40;;;;;;;0.10;0.10;;;;;;;-145.06;100.00;53803.28;10365135;28;20422;-78
2023/01/02 06:36:40;;;;;;;0.10;0.10;;;;;;;-145.06;100.00;53827.59;10325032;28;1200116;-77
2023/01/02 06:41:40;;;;;;;0.10;0.10;;;;;;;-145.06;100.00;53821.50;10365410;28;20022;-77
2023/01/02 06:46:41;;;;;;;0.10;0.10;;;;;;;-145.06;100.00;53831.63;10370181;28;20026;-77
2023/01/02 06:51:41;;;;;;;0.10;0.10;;;;;;;-145.06;100.00;53819.47;10373398;28;20481;-76
2023/01/02 06:56:41;;;;;;;0.10;0.10;;;;;;;-145.06;100.00;53811.38;10374836;28;20416;-76
2023/01/02 07:01:42;;;;;;;0.00;0.00;;;;;;;-145.06;100.00;53827.59;10378121;28;20048;-77
2023/01/02 07:06:42;;;;;;;0.10;0.10;;;;;;;-145.06;100.00;53851.88;10380905;28;20389;-77
2023/01/02 07:11:42;;;;;;;0.10;0.10;;;;;;;-145.06;100.00;53831.63;10379419;28;20026;-77
2023/01/02 07:16:42;;;;;;;0.10;0.10;;;;;;;-145.06;100.00;53835.69;10372716;28;20091;-77
2023/01/02 07:21:43;;;;;;;0.00;0.00;;;;;;;-145.06;100.00;53799.22;10379989;28;20026;-76
2023/01/02 07:26:43;;;;;;;0.10;0.10;;;;;;;-145.06;100.00;53847.84;10378180;28;20028;-76
2023/01/02 07:31:43;;;;;;;0.10;0.10;;;;;;;-145.06;100.00;53805.31;10377183;28;20300;-76
2023/01/02 07:36:44;;;;;;;0.10;0.10;;;;;;;-145.06;100.00;53811.38;10373544;22;20089;-76
2023/01/02 07:41:44;;;;;;;0.10;0.10;;;;;;;-145.06;100.00;53815.44;10327148;28;20028;-75
2023/01/02 07:46:44;;;;;;;0.00;0.00;;;;;;;-145.06;100.00;53776.94;10326512;28;20030;-77
2023/01/02 07:51:45;;;;;;;0.00;0.00;;;;;;;-145.06;100.00;53835.69;10331384;28;20025;-77
2023/01/02 07:56:45;;;;;;;0.10;0.10;;;;;;;-145.06;100.00;53821.50;10340335;28;20101;-77
2023/01/02 08:01:45;;;;;;;0.10;0.10;;;;;;;-145.06;100.00;53833.66;10338686;28;20443;-77
2023/01/02 08:06:45;;;;;;;0.10;0.10;;;;;;;-145.06;100.00;53829.59;10331706;28;20018;-78
2023/01/02 08:11:46;;;;;;;0.10;0.10;;;;;;;-145.06;100.00;53799.22;10333130;28;20029;-76
2023/01/02 08:16:46;;;;;;;0.10;0.10;;;;;;;-145.06;100.00;53801.25;10327867;28;20022;-77
2023/01/02 08:21:46;;;;;;;0.10;0.10;;;;;;;-145.06;100.00;53825.56;10331060;28;20042;-76
2023/01/02 08:26:47;;;;;;;0.10;0.10;;;;;;;-145.06;100.00;53815.44;10332642;28;20045;-76
2023/01/02 08:31:47;;;;;;;0.00;0.00;;;;;;;-145.06;100.00;53813.41;10332996;28;20026;-77
2023/01/02 08:36:47;;;;;;;0.10;0.10;;;;;;;-145.06;100.00;53817.47;10315024;28;20042;-77
2023/01/02 08:41:47;;;;;;;0.10;0.10;;;;;;;-145.06;100.00;53803.28;10324882;28;20033;-77
2023/01/02 08:46:48;;;;;;;0.08;0.08;;;;;;;-145.06;100.00;53783.03;10327144;28;20022;-77
2023/01/02 08:51:48;;;;;;;0.10;0.10;;;;;;;-145.06;100.00;53823.53;10330779;28;20101;-77
2023/01/02 08:56:48;;;;;;;0.08;0.08;;;;;;;-145.06;100.00;53817.47;10336688;28;20093;-78
2023/01/02 09:01:49;;;;;;;0.00;0.00;;;;;;;-145.06;100.00;53799.22;10336531;28;20029;-78
2023/01/02 09:06:49;;;;;;;0.00;0.00;;;;;;;-145.06;100.00;53835.69;10338233;28;20113;-78
2023/01/02 09:11:51;;;;;;;0.10;0.10;;;;;;;-145.06;100.00;53791.13;10335136;28;20077;-78
2023/01/02 09:16:51;;;;;;;0.10;0.10;;;;;;;-145.06;100.00;53776.94;10329420;28;20041;-77
2023/01/02 09:21:52;;;;;;;0.10;0.10;;;;;;;-145.06;100.00;53819.47;10331529;28;20029;-78
2023/01/02 09:26:52;;;;;;;0.10;0.10;;;;;;;-145.06;100.00;53799.22;10333462;28;20278;-78
2023/01/02 09:31:52;;;;;;;0.00;0.00;;;;;;;-145.06;100.00;53811.38;10325014;28;20412;-77
2023/01/02 09:36:53;;;;;;;0.10;0.10;;;;;;;-145.06;100.00;53811.38;10330140;28;20432;-77
2023/01/02 09:41:57;;;;;;;0.05;0.05;;;;;;;-145.06;100.00;53803.28;10328959;28;20265;-77
2023/01/02 09:47:02;;;;;;;0.00;0.00;;;;;;;-145.06;100.00;53787.06;10323544;28;20026;-78
2023/01/02 09:52:06;;;;;;;0.00;0.00;;;;;;;-145.06;100.00;53821.50;10328452;28;20443;-77
2023/01/02 09:57:27;;;;;;;0.10;0.10;;;;;;;-145.06;100.00;53776.94;10328350;28;20022;-77
2023/01/02 10:02:50;;;;;;;0.10;0.10;;;;;;;-145.06;100.00;53795.19;10329689;28;20034;-78
2023/01/02 10:08:14;;;;;;;0.10;0.10;;;;;;;-145.06;100.00;53795.19;10325458;28;20034;-77
2023/01/02 10:13:14;;;;;;;;;;;;;;;-145.06;100.00;53754.69;10329578;28;20022;-77
2023/01/02 10:18:44;;;;;;;0.10;0.10;;;;;;;-145.06;100.00;53823.53;10321096;28;19956;-78
2023/01/02 10:23:53;;;;;;;0.08;0.08;;;;;;;-145.06;100.00;53831.63;10334827;28;20114;-77
2023/01/02 10:28:59;;;;;;;0.10;0.10;;;;;;;-145.06;100.00;53843.78;10336523;28;20054;-77
2023/01/02 10:34:01;;;;;;;0.00;0.00;;;;;;;-145.06;100.00;53809.34;10337294;28;20018;-77
2023/01/02 10:39:05;;;;;;;0.10;0.10;;;;;;;-145.06;100.00;53813.41;10335200;28;20030;-77
2023/01/02 10:44:14;;;;;;;0.10;0.10;;;;;;;-145.06;100.00;53811.38;10334963;28;20482;-77
2023/01/02 10:49:15;;;;;;;0.10;0.10;;;;;;;-145.06;100.00;53795.19;10324199;28;20196;-77
2023/01/02 10:54:15;;;;;;;0.10;0.10;;;;;;;-145.06;100.00;53787.06;10335529;28;20109;-77
2023/01/02 10:59:27;;;;;;;0.10;0.10;;;;;;;-145.06;100.00;53791.13;10288265;28;20385;-77
2023/01/02 11:04:29;;;;;;;0.10;0.10;;;;;;;-145.06;100.00;53831.63;10315327;28;20517;-77
2023/01/02 11:09:32;;;;;;;0.05;0.05;;;;;;;-145.06;100.00;53849.84;10324136;28;20473;-77
2023/01/02 11:14:34;;;;;;;0.00;0.00;;;;;;;-145.06;100.00;53813.41;10321768;28;20065;-78
2023/01/02 11:19:41;;;;;;;0.10;0.10;;;;;;;-145.06;100.00;53795.19;10322448;28;20027;-77
2023/01/02 11:24:52;;;;;;;0.00;0.00;;;;;;;-145.06;100.00;53813.41;10321554;28;20035;-77
2023/01/02 11:29:52;;;;;;;0.10;0.10;;;;;;;-145.06;100.00;53805.31;10313294;28;20473;-77
2023/01/02 11:34:59;;;;;;;0.10;0.10;;;;;;;-145.06;100.00;53819.47;10317703;28;20052;-77
2023/01/02 11:40:06;;;;;;;0.00;0.00;;;;;;;-145.06;100.00;53833.66;10325240;28;20492;-78
2023/01/02 11:45:10;;;;;;;0.00;0.00;;;;;;;-145.06;100.00;53807.31;10325378;28;20029;-78
2023/01/02 11:50:19;;;;;;;0.10;0.10;;;;;;;-145.06;100.00;53833.66;10317196;28;20018;-77
2023/01/02 11:55:38;;;;;;;0.10;0.10;;;;;;;-145.06;100.00;53815.44;10327393;28;20493;-78
2023/01/02 12:00:40;;;;;;;0.08;0.08;;;;;;;-145.06;100.00;53803.28;10319726;28;20105;-77
2023/01/02 12:05:55;;;;;;;0.00;0.00;;;;;;;-145.06;100.00;53829.59;10310259;28;20046;-78
2023/01/02 12:11:20;;;;;;;0.10;0.10;;;;;;;-145.06;100.00;53835.69;10329854;28;20032;-78
2023/01/02 12:16:26;;;;;;;;;;;;;;;-145.06;100.00;53859.97;10332580;28;20019;-78
2023/01/02 12:21:35;;;;;;;0.00;0.00;;;;;;;-145.06;100.00;53819.47;10334186;28;19956;-77
2023/01/02 12:27:01;;;;;;;0.10;0.10;;;;;;;-145.06;100.00;53833.66;10336380;28;20030;-77
2023/01/02 12:32:26;;;;;;;0.10;0.10;;;;;;;-145.06;100.00;53815.44;10332543;28;20051;-78
2023/01/02 12:37:29;;;;;;;0.10;0.10;;;;;;;-145.06;100.00;53823.53;10335764;28;20153;-78
2023/01/02 12:42:47;;;;;;;0.00;0.00;;;;;;;-145.06;100.00;53829.59;10327384;28;20032;-78
2023/01/02 12:48:02;;;;;;;0.10;0.10;;;;;;;-145.06;100.00;53827.59;10328304;28;20068;-77
2023/01/02 12:53:19;;;;;;;0.00;0.00;;;;;;;-145.06;100.00;53813.41;10331111;28;20027;-78
2023/01/02 12:58:42;;;;;;;0.10;0.10;;;;;;;-145.06;100.00;53831.63;10334005;28;20492;-78
2023/01/02 13:04:00;;;;;;;0.10;0.10;;;;;;;-145.06;100.00;53809.34;10325535;28;20066;-79
2023/01/02 13:09:08;;;;;;;0.10;0.10;;;;;;;-145.06;100.00;53837.72;10310132;28;20038;-78
2023/01/02 13:14:16;;;;;;;0.10;0.10;;;;;;;-145.06;100.00;53843.78;10326321;28;20782;-79
2023/01/02 13:19:28;;;;;;;0.10;0.10;;;;;;;-145.06;100.00;53823.53;10327164;28;20030;-78
2023/01/02 13:24:30;;;;;;;0.10;0.10;;;;;;;-145.06;100.00;53815.44;10331571;28;20037;-79
2023/01/02 13:29:42;;;;;;;0.00;0.00;;;;;;;-145.06;100.00;53845.81;10326381;28;20041;-79
2023/01/02 13:34:51;;;;;;;0.00;0.00;;;;;;;-145.06;100.00;53862.00;10331083;28;20381;-78
2023/01/02 13:39:56;;;;;;;0.00;0.00;;;;;;;-145.06;100.00;53855.94;10367793;23;20030;-78
2023/01/02 13:44:58;;;;;;;0.10;0.10;;;;;;;-145.06;100.00;53864.03;10365104;28;20030;-79
2023/01/02 13:50:12;;;;;;;0.00;0.00;;;;;;;-145.06;100.00;53835.69;10356937;28;20073;-80
2023/01/02 13:55:20;;;;;;;0.00;0.00;;;;;;;-145.06;100.00;53835.69;10350450;28;20028;-80
2023/01/02 14:00:36;;;;;;;0.00;0.00;;;;;;;-145.06;100.00;53815.44;10339922;28;20400;-79
2023/01/02 14:05:59;;;;;;;0.00;0.00;;;;;;;-145.06;100.00;53843.78;10350556;28;20029;-80
2023/01/02 14:11:08;;;;;;;0.10;0.10;;;;;;;-145.06;100.00;53855.94;10356100;28;20061;-80
2023/01/02 14:16:15;;;;;;;0.10;0.10;;;;;;;-145.06;100.00;53847.84;10361876;28;20022;-78
2023/01/02 14:21:17;;;;;;;0.00;0.00;;;;;;;-145.06;100.00;53807.31;10353399;28;20022;-80
2023/01/02 14:26:24;;;;;;;0.10;0.10;;;;;;;-145.06;100.00;53843.78;10350219;28;20112;-79
2023/01/02 14:31:33;;;;;;;0.00;0.00;;;;;;;-145.06;100.00;53819.47;10354853;28;20026;-80
2023/01/02 14:36:38;;;;;;;0.08;0.08;;;;;;;-145.06;100.00;53831.63;10357520;28;20473;-79
2023/01/02 14:47:18;;;;;;;0.10;0.10;;;;;;;-145.06;100.00;53886.31;10363566;28;20038;-80
2023/01/02 14:52:28;;;;;;;0.00;0.00;;;;;;;-145.06;100.00;53855.94;10354335;28;20026;-79
2023/01/02 14:57:36;;;;;;;0.10;0.10;;;;;;;-145.06;100.00;53864.03;10347207;28;20037;-80
2023/01/02 15:02:41;;;;;;;0.10;0.10;;;;;;;-145.06;100.00;53821.50;10352433;28;20030;-79
2023/01/02 15:07:48;;;;;;;0.10;0.10;;;;;;;-145.06;100.00;53837.72;10359581;28;20037;-80
2023/01/02 15:13:08;;;;;;;0.00;0.00;;;;;;;-145.06;100.00;53876.19;10360441;28;20034;-80
2023/01/02 15:18:32;;;;;;;0.00;0.00;;;;;;;-145.06;100.00;53851.88;10361421;28;20026;-79
2023/01/02 15:23:33;;;;;;;0.10;0.10;;;;;;;-145.06;100.00;53890.38;10361779;28;20026;-79
2023/01/02 15:28:33;;;;;;;0.00;0.00;;;;;;;-145.06;100.00;53892.38;10354726;28;20026;-80
2023/01/02 15:33:33;;;;;;;0.10;0.10;;;;;;;-145.06;100.00;53876.19;10351678;28;20465;-80
2023/01/02 15:38:34;;;;;;;0.00;0.00;;;;;;;-145.06;100.00;53878.22;10361362;28;20112;-80
2023/01/02 15:48:58;;;;;;;0.10;0.10;;;;;;;-145.06;100.00;53855.94;10365275;28;20026;-79
2023/01/02 15:53:58;;;;;;;0.05;0.05;;;;;;;-145.06;100.00;53835.69;10365052;28;20041;-80
2023/01/02 15:58:59;;;;;;;0.00;0.00;;;;;;;-145.06;100.00;53857.97;10361933;28;20492;-80
2023/01/02 16:04:04;;;;;;;0.10;0.10;;;;;;;-145.06;100.00;53835.69;10350436;28;20392;-80
2023/01/02 16:09:14;;;;;;;0.03;0.03;;;;;;;-145.06;100.00;53864.03;10363053;28;20481;-79
2023/01/02 16:14:19;;;;;;;0.10;0.10;;;;;;;-145.06;100.00;53835.69;10358672;28;20022;-80
2023/01/02 16:19:48;;;;;;;0.00;0.00;;;;;;;-145.06;100.00;53789.09;10360194;28;20507;-79
2023/01/02 16:24:53;;;;;;;0.00;0.00;;;;;;;-145.06;100.00;53872.13;10364667;28;20029;-80
2023/01/02 16:29:54;;;;;;;;;;;;;;;-145.06;100.00;53874.16;10350792;28;20450;-80
2023/01/02 16:35:24;;;;;;;0.00;0.00;;;;;;;-145.06;100.00;53870.09;10369214;28;19916;-78
2023/01/02 16:40:35;;;;;;;0.10;0.10;;;;;;;-145.06;100.00;53853.91;10353370;28;20457;-79
2023/01/02 16:45:37;;;;;;;0.10;0.10;;;;;;;-145.06;100.00;53857.97;10364287;28;20031;-80
2023/01/02 16:50:41;;;;;;;0.10;0.10;;;;;;;-145.06;100.00;53825.56;10350517;28;20018;-80
2023/01/02 16:55:41;;;;;;;0.00;0.00;;;;;;;-145.06;100.00;53864.03;10361461;28;20455;-78
2023/01/02 17:00:42;;;;;;;0.10;0.10;;;;;;;-145.06;100.00;53845.81;10356581;28;20086;-79
2023/01/02 17:05:46;;;;;;;0.10;0.10;;;;;;;-145.06;100.00;53864.03;10351734;28;20486;-80
2023/01/02 17:10:47;;;;;;;0.10;0.10;;;;;;;-145.06;100.00;53833.66;10370315;28;20029;-80
2023/01/02 17:15:47;;;;;;;0.00;0.00;;;;;;;-145.06;100.00;53898.47;10358319;28;20040;-79
2023/01/02 17:20:48;;;;;;;0.10;0.10;;;;;;;-145.06;100.00;53825.56;10354003;28;20026;-80
2023/01/02 17:25:48;;;;;;;0.03;0.03;;;;;;;-145.06;100.00;53872.13;10357911;28;20404;-80
2023/01/02 17:30:48;;;;;;;0.00;0.00;;;;;;;-145.06;100.00;53876.19;10354714;28;20033;-80
2023/01/02 17:35:49;;;;;;;0.10;0.10;;;;;;;-145.06;100.00;53864.03;10356142;28;20023;-80
2023/01/02 17:40:55;;;;;;;0.00;0.00;;;;;;;-145.06;100.00;53868.09;10354557;28;20026;-80
2023/01/02 17:45:55;;;;;;;0.10;0.10;;;;;;;-145.06;100.00;53815.44;10353200;28;20022;-80
2023/01/02 17:50:56;;;;;;;0.10;0.10;;;;;;;-145.06;100.00;53880.22;10348270;28;20044;-79
2023/01/02 17:55:57;;;;;;;0.10;0.10;;;;;;;-145.06;100.00;53855.94;10354710;28;20080;-80
2023/01/02 18:00:57;;;;;;;0.00;0.00;;;;;;;-145.06;100.00;53831.63;10361479;28;20014;-80
2023/01/02 18:06:03;;;;;;;0.10;0.10;;;;;;;-145.06;100.00;53876.19;10346882;28;20464;-76
2023/01/02 18:11:05;;;;;;;0.00;0.00;;;;;;;-145.06;100.00;53853.91;10355224;28;20014;-79
2023/01/02 18:16:19;;;;;;;0.10;0.10;;;;;;;-145.06;100.00;53851.88;10353236;28;20520;-80
2023/01/02 18:21:25;;;;;;;0.10;0.10;;;;;;;-145.06;100.00;53855.94;10354322;28;20057;-81
2023/01/02 18:26:25;;;;;;;0.10;0.10;;;;;;;-145.06;100.00;53882.25;10347301;28;20553;-81
2023/01/02 18:31:30;;;;;;;0.00;0.00;;;;;;;-145.06;100.00;53843.78;10357737;28;20022;-80
2023/01/02 18:36:32;;;;;;;0.10;0.10;;;;;;;-145.06;100.00;53815.44;10363017;28;20019;-79
2023/01/02 18:41:35;;;;;;;0.00;0.00;;;;;;;-145.06;100.00;53803.28;10357168;28;20037;-80
2023/01/02 18:46:37;;;;;;;0.10;0.10;;;;;;;-145.06;100.00;53851.88;10380420;28;20089;-81
2023/01/02 18:51:37;;;;;;;0.00;0.00;;;;;;;-145.06;100.00;53831.63;10364934;28;20505;-79
2023/01/02 18:56:37;;;;;;;0.10;0.10;;;;;;;-145.06;100.00;53831.63;10362330;28;20030;-80
2023/01/02 19:01:43;;;;;;;0.00;0.00;;;;;;;-145.06;100.00;53855.94;10382945;28;20389;-80
2023/01/02 19:06:49;;;;;;;0.03;0.03;;;;;;;-145.06;100.00;53839.72;10361442;28;20108;-81
2023/01/02 19:17:33;;;;;;;0.10;0.10;;;;;;;-145.06;100.00;53851.88;10374968;28;20400;-80
2023/01/02 19:22:34;;;;;;;0.05;0.05;;;;;;;-145.06;100.00;53847.84;10363376;28;20104;-80
2023/01/02 19:27:37;;;;;;;0.03;0.03;;;;;;;-145.06;100.00;53886.31;10353292;28;20019;-80
2023/01/02 19:32:37;;;;;;;0.10;0.10;;;;;;;-145.06;100.00;53864.03;10364929;28;20025;-80
2023/01/02 19:37:40;;;;;;;0.00;0.00;;;;;;;-145.06;100.00;53847.84;10364388;22;20077;-79
2023/01/02 19:42:41;;;;;;;0.03;0.03;;;;;;;-145.06;100.00;53823.53;10324897;28;20348;-78
2023/01/02 19:47:41;;;;;;;0.10;0.10;;;;;;;-145.06;100.00;53868.09;10345251;28;20085;-79
2023/01/02 19:52:42;;;;;;;0.10;0.10;;;;;;;-145.06;100.00;53811.38;10344356;28;20029;-78
2023/01/02 19:57:43;;;;;;;0.10;0.10;;;;;;;-145.06;100.00;53884.28;10345139;28;20022;-79
2023/01/02 20:02:44;;;;;;;0.10;0.10;;;;;;;-145.06;100.00;53855.94;10345509;28;20324;-78
2023/01/02 20:07:45;;;;;;;0.10;0.10;;;;;;;-145.06;100.00;53892.38;10345145;28;20050;-77
2023/01/02 20:12:45;;;;;;;0.10;0.10;;;;;;;-145.06;100.00;53870.09;10343124;28;20046;-79
2023/01/02 20:17:46;;;;;;;0.03;0.03;;;;;;;-145.06;100.00;53805.31;10343212;28;20018;-78
2023/01/02 20:22:50;;;;;;;0.05;0.05;;;;;;;-145.06;100.00;53888.34;10342806;28;20304;-78
2023/01/02 20:27:54;;;;;;;0.10;0.10;;;;;;;-145.06;100.00;53870.09;10325511;28;20117;-79
2023/01/02 20:32:55;;;;;;;;;;;;;;;-145.06;100.00;53878.22;10322457;28;20022;-78
2023/01/02 20:37:55;;;;;;;0.00;0.00;;;;;;;-145.06;100.00;53876.19;10341823;28;20280;-79
2023/01/02 20:42:55;;;;;;;0.00;0.00;;;;;;;-145.06;100.00;53827.59;10340995;28;20027;-79
2023/01/02 20:47:56;;;;;;;0.00;0.00;;;;;;;-145.06;100.00;53835.69;10342630;28;20299;-78
2023/01/02 20:52:56;;;;;;;0.10;0.10;;;;;;;-145.06;100.00;53835.69;10317277;28;20561;-78
2023/01/02 20:57:56;;;;;;;0.10;0.10;;;;;;;-145.06;100.00;53880.22;10334228;28;20022;-78
2023/01/02 21:02:56;;;;;;;0.00;0.00;;;;;;;-145.06;100.00;53876.19;10333310;28;20101;-78
2023/01/02 21:07:57;;;;;;;0.10;0.10;;;;;;;-145.06;100.00;53872.13;10314157;28;20022;-78
2023/01/02 21:13:06;;;;;;;0.00;0.00;;;;;;;-145.06;100.00;53835.69;10333229;28;20068;-78
2023/01/02 21:18:08;;;;;;;0.10;0.10;;;;;;;-145.06;100.00;53853.91;10315539;28;20306;-77
2023/01/02 21:23:09;;;;;;;0.00;0.00;;;;;;;-145.06;100.00;53807.31;10334354;28;20114;-78
2023/01/02 21:28:11;;;;;;;0.00;0.00;;;;;;;-145.06;100.00;53862.00;10333005;28;20027;-78
2023/01/02 21:33:14;;;;;;;0.00;0.00;;;;;;;-145.06;100.00;53878.22;10315979;28;20513;-78
2023/01/02 21:38:16;;;;;;;0.00;0.00;;;;;;;-145.06;100.00;53874.16;10336379;28;20034;-78
2023/01/02 21:43:16;;;;;;;0.00;0.00;;;;;;;-145.06;100.00;53835.69;10322974;28;20022;-79
2023/01/02 21:48:16;;;;;;;0.10;0.10;;;;;;;-145.06;100.00;53876.19;10339219;28;20366;-78
2023/01/02 21:53:16;;;;;;;0.00;0.00;;;;;;;-145.06;100.00;53888.34;10340542;28;20018;-78
2023/01/02 21:58:17;;;;;;;0.00;0.00;;;;;;;-145.06;100.00;53835.69;10338694;28;20026;-79
2023/01/02 22:03:17;;;;;;;0.00;0.00;;;;;;;-145.06;100.00;53849.84;10322755;28;20105;-78
2023/01/02 22:08:17;;;;;;;0.00;0.00;;;;;;;-145.06;100.00;53876.19;10338165;28;20027;-79
2023/01/02 22:13:17;;;;;;;0.00;0.00;;;;;;;-145.06;100.00;53906.56;10339402;28;20015;-78
2023/01/02 22:18:18;;;;;;;0.00;0.00;;;;;;;-145.06;100.00;53864.03;10342457;28;20037;-78
2023/01/02 22:23:18;;;;;;;0.10;0.10;;;;;;;-145.06;100.00;53894.41;10347170;28;20014;-78
2023/01/02 22:28:18;;;;;;;0.00;0.00;;;;;;;-145.06;100.00;53853.91;10329452;28;20027;-78
2023/01/02 22:33:19;;;;;;;0.00;0.00;;;;;;;-145.06;100.00;53853.91;10346878;28;20106;-78
2023/01/02 22:38:19;;;;;;;0.00;0.00;;;;;;;-145.06;100.00;53896.44;10345328;28;20444;-79
2023/01/02 22:43:20;;;;;;;0.00;0.00;;;;;;;-145.06;100.00;53890.38;10326155;28;20019;-78
2023/01/02 22:48:24;;;;;;;0.00;0.00;;;;;;;-145.06;100.00;53841.75;10345735;28;20022;-78
2023/01/02 22:53:32;;;;;;;0.00;0.00;;;;;;;-145.06;100.00;53870.09;10345408;28;20062;-78
2023/01/02 22:58:32;;;;;;;0.00;0.00;;;;;;;-145.06;100.00;53862.00;10341155;28;20030;-78
2023/01/02 23:03:37;;;;;;;0.00;0.00;;;;;;;-145.06;100.00;53886.31;10344624;28;20018;-79
2023/01/02 23:08:38;;;;;;;0.00;0.00;;;;;;;-145.06;100.00;53884.28;10343315;28;20261;-78